sensor_id;sensor_type;location;lat;lon;timestamp;temperature;humidity
47338;DHT22;33069;51.970;5.892;2022-11-18T00:00:30;8.50;86.00
47338;DHT22;33069;51.970;5.892;2022-11-18T00:02:56;8.50;86.10
47338;DHT22;33069;51.970;5.892;2022-11-18T00:05:22;8.50;86.20
47338;DHT22;33069;51.970;5.892;2022-11-18T00:07:48;8.50;86.20
47338;DHT22;33069;51.970;5.892;2022-11-18T00:10:13;8.70;86.30
47338;DHT22;33069;51.970;5.892;2022-11-18T00:12:39;8.60;86.10
47338;DHT22;33069;51.970;5.892;2022-11-18T00:15:23;8.70;86.10
47338;DHT22;33069;51.970;5.892;2022-11-18T00:17:49;8.70;86.10
47338;DHT22;33069;51.970;5.892;2022-11-18T00:20:15;8.70;85.80
47338;DHT22;33069;51.970;5.892;2022-11-18T00:22:40;8.70;85.80
47338;DHT22;33069;51.970;5.892;2022-11-18T00:25:06;8.60;85.70
47338;DHT22;33069;51.970;5.892;2022-11-18T00:27:32;8.70;85.70
47338;DHT22;33069;51.970;5.892;2022-11-18T00:29:58;8.70;85.80
47338;DHT22;33069;51.970;5.892;2022-11-18T00:32:23;8.70;85.50
47338;DHT22;33069;51.970;5.892;2022-11-18T00:34:49;8.70;85.50
47338;DHT22;33069;51.970;5.892;2022-11-18T00:37:15;8.70;85.50
47338;DHT22;33069;51.970;5.892;2022-11-18T00:39:40;8.50;85.30
47338;DHT22;33069;51.970;5.892;2022-11-18T00:42:06;8.40;85.40
47338;DHT22;33069;51.970;5.892;2022-11-18T00:44:50;8.40;85.80
47338;DHT22;33069;51.970;5.892;2022-11-18T00:47:16;8.50;86.00
47338;DHT22;33069;51.970;5.892;2022-11-18T00:49:42;8.50;85.90
47338;DHT22;33069;51.970;5.892;2022-11-18T00:52:07;8.40;85.90
47338;DHT22;33069;51.970;5.892;2022-11-18T00:54:33;8.30;86.00
47338;DHT22;33069;51.970;5.892;2022-11-18T00:56:59;8.30;86.30
47338;DHT22;33069;51.970;5.892;2022-11-18T00:59:25;8.30;86.50
47338;DHT22;33069;51.970;5.892;2022-11-18T01:01:50;8.40;86.70
47338;DHT22;33069;51.970;5.892;2022-11-18T01:04:16;8.50;86.60
47338;DHT22;33069;51.970;5.892;2022-11-18T01:06:42;8.40;86.50
47338;DHT22;33069;51.970;5.892;2022-11-18T01:09:07;8.40;86.50
47338;DHT22;33069;51.970;5.892;2022-11-18T01:11:33;8.40;86.50
47338;DHT22;33069;51.970;5.892;2022-11-18T01:14:18;8.50;86.50
47338;DHT22;33069;51.970;5.892;2022-11-18T01:16:43;8.40;86.30
47338;DHT22;33069;51.970;5.892;2022-11-18T01:19:16;8.40;86.40
47338;DHT22;33069;51.970;5.892;2022-11-18T01:21:42;8.40;86.60
47338;DHT22;33069;51.970;5.892;2022-11-18T01:24:07;8.40;86.60
47338;DHT22;33069;51.970;5.892;2022-11-18T01:26:33;8.40;86.60
47338;DHT22;33069;51.970;5.892;2022-11-18T01:28:59;8.50;86.70
47338;DHT22;33069;51.970;5.892;2022-11-18T01:31:25;8.60;86.70
47338;DHT22;33069;51.970;5.892;2022-11-18T01:33:51;8.50;86.60
47338;DHT22;33069;51.970;5.892;2022-11-18T01:36:22;8.50;86.70
47338;DHT22;33069;51.970;5.892;2022-11-18T01:38:49;8.50;86.60
47338;DHT22;33069;51.970;5.892;2022-11-18T01:41:16;8.50;86.60
47338;DHT22;33069;51.970;5.892;2022-11-18T01:43:54;8.50;86.50
47338;DHT22;33069;51.970;5.892;2022-11-18T01:46:22;8.50;86.50
47338;DHT22;33069;51.970;5.892;2022-11-18T01:49:02;8.60;86.50
47338;DHT22;33069;51.970;5.892;2022-11-18T01:51:33;8.60;86.40
47338;DHT22;33069;51.970;5.892;2022-11-18T01:54:10;8.70;86.30
47338;DHT22;33069;51.970;5.892;2022-11-18T01:56:41;8.60;86.10
47338;DHT22;33069;51.970;5.892;2022-11-18T01:59:11;8.70;86.20
47338;DHT22;33069;51.970;5.892;2022-11-18T02:01:37;8.60;86.10
47338;DHT22;33069;51.970;5.892;2022-11-18T02:04:05;8.70;86.20
47338;DHT22;33069;51.970;5.892;2022-11-18T02:06:32;8.70;86.10
47338;DHT22;33069;51.970;5.892;2022-11-18T02:08:58;8.70;85.90
47338;DHT22;33069;51.970;5.892;2022-11-18T02:11:25;8.70;85.80
47338;DHT22;33069;51.970;5.892;2022-11-18T02:14:10;8.70;85.70
47338;DHT22;33069;51.970;5.892;2022-11-18T02:21:52;8.50;86.00
47338;DHT22;33069;51.970;5.892;2022-11-18T02:24:46;8.50;86.30
47338;DHT22;33069;51.970;5.892;2022-11-18T02:27:37;8.70;86.40
47338;DHT22;33069;51.970;5.892;2022-11-18T02:30:11;8.70;86.30
47338;DHT22;33069;51.970;5.892;2022-11-18T02:32:42;8.60;86.30
47338;DHT22;33069;51.970;5.892;2022-11-18T02:35:39;8.60;86.30
47338;DHT22;33069;51.970;5.892;2022-11-18T02:38:19;8.70;86.40
47338;DHT22;33069;51.970;5.892;2022-11-18T02:40:55;8.70;86.30
47338;DHT22;33069;51.970;5.892;2022-11-18T02:43:39;8.60;86.20
47338;DHT22;33069;51.970;5.892;2022-11-18T02:46:09;8.70;86.40
47338;DHT22;33069;51.970;5.892;2022-11-18T02:48:41;8.70;86.10
47338;DHT22;33069;51.970;5.892;2022-11-18T02:51:09;8.50;86.00
47338;DHT22;33069;51.970;5.892;2022-11-18T02:53:37;8.40;86.20
47338;DHT22;33069;51.970;5.892;2022-11-18T02:56:06;8.50;86.30
47338;DHT22;33069;51.970;5.892;2022-11-18T02:58:33;8.40;86.40
47338;DHT22;33069;51.970;5.892;2022-11-18T03:01:00;8.60;86.60
47338;DHT22;33069;51.970;5.892;2022-11-18T03:03:30;8.50;86.40
47338;DHT22;33069;51.970;5.892;2022-11-18T03:08:41;8.70;86.40
47338;DHT22;33069;51.970;5.892;2022-11-18T03:11:15;8.70;86.40
47338;DHT22;33069;51.970;5.892;2022-11-18T03:14:04;8.70;86.50
47338;DHT22;33069;51.970;5.892;2022-11-18T03:16:39;8.60;86.40
47338;DHT22;33069;51.970;5.892;2022-11-18T03:19:21;8.60;86.60
47338;DHT22;33069;51.970;5.892;2022-11-18T03:24:58;8.70;86.80
47338;DHT22;33069;51.970;5.892;2022-11-18T03:27:41;8.70;86.70
47338;DHT22;33069;51.970;5.892;2022-11-18T03:30:15;8.70;86.70
47338;DHT22;33069;51.970;5.892;2022-11-18T03:32:43;8.70;86.70
47338;DHT22;33069;51.970;5.892;2022-11-18T03:35:17;8.70;86.70
47338;DHT22;33069;51.970;5.892;2022-11-18T03:37:45;8.60;86.70
47338;DHT22;33069;51.970;5.892;2022-11-18T03:40:17;8.80;86.90
47338;DHT22;33069;51.970;5.892;2022-11-18T03:42:48;8.70;86.90
47338;DHT22;33069;51.970;5.892;2022-11-18T03:45:25;8.60;86.90
47338;DHT22;33069;51.970;5.892;2022-11-18T03:48:08;8.70;87.20
47338;DHT22;33069;51.970;5.892;2022-11-18T03:50:42;8.70;87.20
47338;DHT22;33069;51.970;5.892;2022-11-18T03:53:10;8.70;87.20
47338;DHT22;33069;51.970;5.892;2022-11-18T03:55:39;8.70;87.20
47338;DHT22;33069;51.970;5.892;2022-11-18T03:58:24;8.70;87.20
47338;DHT22;33069;51.970;5.892;2022-11-18T04:01:03;8.80;87.30
47338;DHT22;33069;51.970;5.892;2022-11-18T04:03:30;8.80;87.30
47338;DHT22;33069;51.970;5.892;2022-11-18T04:06:19;8.80;87.30
47338;DHT22;33069;51.970;5.892;2022-11-18T04:08:52;8.80;87.20
47338;DHT22;33069;51.970;5.892;2022-11-18T04:11:25;8.80;87.10
47338;DHT22;33069;51.970;5.892;2022-11-18T04:14:15;8.80;87.20
47338;DHT22;33069;51.970;5.892;2022-11-18T04:16:43;8.90;87.20
47338;DHT22;33069;51.970;5.892;2022-11-18T04:19:09;8.90;87.20
47338;DHT22;33069;51.970;5.892;2022-11-18T04:21:35;8.90;87.20
47338;DHT22;33069;51.970;5.892;2022-11-18T04:24:01;8.90;87.10
47338;DHT22;33069;51.970;5.892;2022-11-18T04:26:27;8.80;87.10
47338;DHT22;33069;51.970;5.892;2022-11-18T04:28:53;8.90;87.10
47338;DHT22;33069;51.970;5.892;2022-11-18T04:31:18;8.80;87.00
47338;DHT22;33069;51.970;5.892;2022-11-18T04:33:44;8.70;87.10
47338;DHT22;33069;51.970;5.892;2022-11-18T04:36:10;8.60;87.30
47338;DHT22;33069;51.970;5.892;2022-11-18T04:38:35;8.80;87.60
47338;DHT22;33069;51.970;5.892;2022-11-18T04:41:01;8.80;87.70
47338;DHT22;33069;51.970;5.892;2022-11-18T04:43:26;8.90;87.70
47338;DHT22;33069;51.970;5.892;2022-11-18T04:45:52;9.00;87.70
47338;DHT22;33069;51.970;5.892;2022-11-18T04:48:18;8.90;87.50
47338;DHT22;33069;51.970;5.892;2022-11-18T04:50:44;9.00;87.50
47338;DHT22;33069;51.970;5.892;2022-11-18T04:53:09;9.00;87.50
47338;DHT22;33069;51.970;5.892;2022-11-18T04:55:35;9.10;87.50
47338;DHT22;33069;51.970;5.892;2022-11-18T04:58:01;9.20;87.40
47338;DHT22;33069;51.970;5.892;2022-11-18T05:00:27;9.20;87.30
47338;DHT22;33069;51.970;5.892;2022-11-18T05:02:52;9.10;87.00
47338;DHT22;33069;51.970;5.892;2022-11-18T05:05:18;9.20;87.00
47338;DHT22;33069;51.970;5.892;2022-11-18T05:07:44;9.20;86.90
47338;DHT22;33069;51.970;5.892;2022-11-18T05:10:09;9.10;86.90
47338;DHT22;33069;51.970;5.892;2022-11-18T05:12:35;9.10;86.90
47338;DHT22;33069;51.970;5.892;2022-11-18T05:15:17;9.00;86.90
47338;DHT22;33069;51.970;5.892;2022-11-18T05:17:43;9.00;87.00
47338;DHT22;33069;51.970;5.892;2022-11-18T05:20:10;9.00;87.20
47338;DHT22;33069;51.970;5.892;2022-11-18T05:22:36;9.00;87.20
47338;DHT22;33069;51.970;5.892;2022-11-18T05:25:03;9.00;87.20
47338;DHT22;33069;51.970;5.892;2022-11-18T05:27:28;9.00;87.30
47338;DHT22;33069;51.970;5.892;2022-11-18T05:29:54;9.10;87.30
47338;DHT22;33069;51.970;5.892;2022-11-18T05:32:20;9.10;87.20
47338;DHT22;33069;51.970;5.892;2022-11-18T05:34:46;9.10;87.20
47338;DHT22;33069;51.970;5.892;2022-11-18T05:37:11;9.00;87.20
47338;DHT22;33069;51.970;5.892;2022-11-18T05:39:37;9.00;87.30
47338;DHT22;33069;51.970;5.892;2022-11-18T05:42:03;9.00;87.30
47338;DHT22;33069;51.970;5.892;2022-11-18T05:44:48;9.00;87.20
47338;DHT22;33069;51.970;5.892;2022-11-18T05:47:15;8.90;87.20
47338;DHT22;33069;51.970;5.892;2022-11-18T05:49:40;9.00;87.40
47338;DHT22;33069;51.970;5.892;2022-11-18T05:52:06;9.10;87.50
47338;DHT22;33069;51.970;5.892;2022-11-18T05:54:32;9.10;87.40
47338;DHT22;33069;51.970;5.892;2022-11-18T05:56:58;9.10;87.40
47338;DHT22;33069;51.970;5.892;2022-11-18T05:59:23;9.10;87.40
47338;DHT22;33069;51.970;5.892;2022-11-18T06:02:02;9.10;87.30
47338;DHT22;33069;51.970;5.892;2022-11-18T06:04:46;9.10;87.20
47338;DHT22;33069;51.970;5.892;2022-11-18T06:07:50;9.00;87.20
47338;DHT22;33069;51.970;5.892;2022-11-18T06:10:16;8.90;87.20
47338;DHT22;33069;51.970;5.892;2022-11-18T06:12:45;9.00;87.30
47338;DHT22;33069;51.970;5.892;2022-11-18T06:15:37;8.80;87.20
47338;DHT22;33069;51.970;5.892;2022-11-18T06:20:37;8.90;87.20
47338;DHT22;33069;51.970;5.892;2022-11-18T06:23:03;8.80;87.20
47338;DHT22;33069;51.970;5.892;2022-11-18T06:25:29;8.80;87.20
47338;DHT22;33069;51.970;5.892;2022-11-18T06:27:58;8.80;87.20
47338;DHT22;33069;51.970;5.892;2022-11-18T06:30:25;8.70;87.10
47338;DHT22;33069;51.970;5.892;2022-11-18T06:32:50;8.70;87.10
47338;DHT22;33069;51.970;5.892;2022-11-18T06:35:16;8.60;87.10
47338;DHT22;33069;51.970;5.892;2022-11-18T06:37:42;8.70;87.20
47338;DHT22;33069;51.970;5.892;2022-11-18T06:40:08;8.70;87.20
47338;DHT22;33069;51.970;5.892;2022-11-18T06:42:34;8.70;87.20
47338;DHT22;33069;51.970;5.892;2022-11-18T06:45:18;8.70;87.20
47338;DHT22;33069;51.970;5.892;2022-11-18T06:47:44;8.70;87.10
47338;DHT22;33069;51.970;5.892;2022-11-18T06:50:10;8.50;87.00
47338;DHT22;33069;51.970;5.892;2022-11-18T06:52:35;8.30;87.10
47338;DHT22;33069;51.970;5.892;2022-11-18T06:55:02;8.30;87.30
47338;DHT22;33069;51.970;5.892;2022-11-18T06:57:30;8.30;87.50
47338;DHT22;33069;51.970;5.892;2022-11-18T06:59:56;8.30;87.60
47338;DHT22;33069;51.970;5.892;2022-11-18T07:02:21;8.40;87.70
47338;DHT22;33069;51.970;5.892;2022-11-18T07:04:47;8.40;87.50
47338;DHT22;33069;51.970;5.892;2022-11-18T07:07:13;8.30;87.50
47338;DHT22;33069;51.970;5.892;2022-11-18T07:09:38;8.30;87.50
47338;DHT22;33069;51.970;5.892;2022-11-18T07:12:04;8.30;87.40
47338;DHT22;33069;51.970;5.892;2022-11-18T07:14:31;8.40;87.50
47338;DHT22;33069;51.970;5.892;2022-11-18T07:16:56;8.40;87.50
47338;DHT22;33069;51.970;5.892;2022-11-18T07:19:22;8.30;87.30
47338;DHT22;33069;51.970;5.892;2022-11-18T07:21:48;8.20;87.30
47338;DHT22;33069;51.970;5.892;2022-11-18T07:24:14;8.30;87.50
47338;DHT22;33069;51.970;5.892;2022-11-18T07:26:40;8.30;87.60
47338;DHT22;33069;51.970;5.892;2022-11-18T07:29:06;8.30;87.50
47338;DHT22;33069;51.970;5.892;2022-11-18T07:31:32;8.20;87.50
47338;DHT22;33069;51.970;5.892;2022-11-18T07:34:01;8.20;87.60
47338;DHT22;33069;51.970;5.892;2022-11-18T07:36:28;8.10;87.60
47338;DHT22;33069;51.970;5.892;2022-11-18T07:38:57;8.20;87.80
47338;DHT22;33069;51.970;5.892;2022-11-18T07:41:25;8.20;87.80
47338;DHT22;33069;51.970;5.892;2022-11-18T07:43:52;8.10;87.80
47338;DHT22;33069;51.970;5.892;2022-11-18T07:46:25;8.30;87.90
47338;DHT22;33069;51.970;5.892;2022-11-18T07:48:53;8.30;87.90
47338;DHT22;33069;51.970;5.892;2022-11-18T07:51:21;8.30;87.90
47338;DHT22;33069;51.970;5.892;2022-11-18T07:53:47;8.30;87.80
47338;DHT22;33069;51.970;5.892;2022-11-18T07:56:14;8.40;87.90
47338;DHT22;33069;51.970;5.892;2022-11-18T07:58:41;8.30;87.70
47338;DHT22;33069;51.970;5.892;2022-11-18T08:01:12;8.40;87.70
47338;DHT22;33069;51.970;5.892;2022-11-18T08:03:38;8.40;87.60
47338;DHT22;33069;51.970;5.892;2022-11-18T08:06:06;8.30;87.50
47338;DHT22;33069;51.970;5.892;2022-11-18T08:08:32;8.30;87.60
47338;DHT22;33069;51.970;5.892;2022-11-18T08:11:01;8.20;87.60
47338;DHT22;33069;51.970;5.892;2022-11-18T08:13:28;8.20;87.70
47338;DHT22;33069;51.970;5.892;2022-11-18T08:15:54;8.20;87.80
47338;DHT22;33069;51.970;5.892;2022-11-18T08:18:21;8.30;87.90
47338;DHT22;33069;51.970;5.892;2022-11-18T08:20:47;8.40;87.90
47338;DHT22;33069;51.970;5.892;2022-11-18T08:23:13;8.40;87.90
47338;DHT22;33069;51.970;5.892;2022-11-18T08:25:41;8.50;87.90
47338;DHT22;33069;51.970;5.892;2022-11-18T08:28:07;8.30;87.70
47338;DHT22;33069;51.970;5.892;2022-11-18T08:30:33;8.30;87.80
47338;DHT22;33069;51.970;5.892;2022-11-18T08:32:59;8.20;88.00
47338;DHT22;33069;51.970;5.892;2022-11-18T08:35:26;8.40;88.20
47338;DHT22;33069;51.970;5.892;2022-11-18T08:37:52;8.30;88.10
47338;DHT22;33069;51.970;5.892;2022-11-18T08:40:17;8.40;88.20
47338;DHT22;33069;51.970;5.892;2022-11-18T08:42:43;8.50;88.30
47338;DHT22;33069;51.970;5.892;2022-11-18T08:45:09;8.50;88.20
47338;DHT22;33069;51.970;5.892;2022-11-18T08:47:36;8.70;88.30
47338;DHT22;33069;51.970;5.892;2022-11-18T08:50:03;8.60;88.20
47338;DHT22;33069;51.970;5.892;2022-11-18T08:52:29;8.70;88.20
47338;DHT22;33069;51.970;5.892;2022-11-18T08:54:55;8.70;88.00
47338;DHT22;33069;51.970;5.892;2022-11-18T08:57:21;8.70;88.00
47338;DHT22;33069;51.970;5.892;2022-11-18T08:59:46;8.80;87.90
47338;DHT22;33069;51.970;5.892;2022-11-18T09:02:17;8.70;87.60
47338;DHT22;33069;51.970;5.892;2022-11-18T09:04:46;8.70;87.60
47338;DHT22;33069;51.970;5.892;2022-11-18T09:07:12;8.80;87.50
47338;DHT22;33069;51.970;5.892;2022-11-18T09:09:37;8.70;87.30
47338;DHT22;33069;51.970;5.892;2022-11-18T09:12:03;8.70;87.20
47338;DHT22;33069;51.970;5.892;2022-11-18T09:14:29;8.80;87.30
47338;DHT22;33069;51.970;5.892;2022-11-18T09:16:55;8.70;87.10
47338;DHT22;33069;51.970;5.892;2022-11-18T09:19:22;8.80;87.10
47338;DHT22;33069;51.970;5.892;2022-11-18T09:21:48;8.90;87.00
47338;DHT22;33069;51.970;5.892;2022-11-18T09:24:14;9.00;86.90
47338;DHT22;33069;51.970;5.892;2022-11-18T09:26:40;9.00;86.80
47338;DHT22;33069;51.970;5.892;2022-11-18T09:29:06;9.10;86.50
47338;DHT22;33069;51.970;5.892;2022-11-18T09:31:33;9.20;86.40
47338;DHT22;33069;51.970;5.892;2022-11-18T09:33:59;9.30;86.30
47338;DHT22;33069;51.970;5.892;2022-11-18T09:36:26;9.40;86.10
47338;DHT22;33069;51.970;5.892;2022-11-18T09:38:52;9.60;85.90
47338;DHT22;33069;51.970;5.892;2022-11-18T09:46:58;9.80;84.80
47338;DHT22;33069;51.970;5.892;2022-11-18T09:49:34;9.90;82.70
47338;DHT22;33069;51.970;5.892;2022-11-18T09:52:05;9.90;83.00
47338;DHT22;33069;51.970;5.892;2022-11-18T09:54:35;9.90;82.90
47338;DHT22;33069;51.970;5.892;2022-11-18T09:57:01;9.80;82.70
47338;DHT22;33069;51.970;5.892;2022-11-18T09:59:30;9.90;83.00
47338;DHT22;33069;51.970;5.892;2022-11-18T10:04:39;9.80;81.50
47338;DHT22;33069;51.970;5.892;2022-11-18T10:07:14;9.70;82.20
47338;DHT22;33069;51.970;5.892;2022-11-18T10:09:43;9.80;82.90
47338;DHT22;33069;51.970;5.892;2022-11-18T10:12:26;9.70;82.80
47338;DHT22;33069;51.970;5.892;2022-11-18T10:15:10;9.90;83.20
47338;DHT22;33069;51.970;5.892;2022-11-18T10:17:45;9.90;82.70
47338;DHT22;33069;51.970;5.892;2022-11-18T10:25:37;10.00;81.60
47338;DHT22;33069;51.970;5.892;2022-11-18T10:28:32;10.00;80.70
47338;DHT22;33069;51.970;5.892;2022-11-18T10:31:05;10.00;81.10
47338;DHT22;33069;51.970;5.892;2022-11-18T10:33:31;10.00;81.50
47338;DHT22;33069;51.970;5.892;2022-11-18T10:38:42;9.90;82.10
47338;DHT22;33069;51.970;5.892;2022-11-18T10:41:11;9.80;82.10
47338;DHT22;33069;51.970;5.892;2022-11-18T10:46:27;9.90;82.60
47338;DHT22;33069;51.970;5.892;2022-11-18T10:51:36;9.80;82.70
47338;DHT22;33069;51.970;5.892;2022-11-18T10:54:22;9.90;82.60
47338;DHT22;33069;51.970;5.892;2022-11-18T10:57:05;9.90;82.60
47338;DHT22;33069;51.970;5.892;2022-11-18T10:59:40;10.10;82.80
47338;DHT22;33069;51.970;5.892;2022-11-18T11:05:18;10.20;81.90
47338;DHT22;33069;51.970;5.892;2022-11-18T11:07:44;10.30;82.00
47338;DHT22;33069;51.970;5.892;2022-11-18T11:12:54;10.20;81.70
47338;DHT22;33069;51.970;5.892;2022-11-18T11:15:27;10.20;81.90
47338;DHT22;33069;51.970;5.892;2022-11-18T11:18:02;10.20;82.00
47338;DHT22;33069;51.970;5.892;2022-11-18T11:20:47;10.40;81.80
47338;DHT22;33069;51.970;5.892;2022-11-18T11:23:14;10.60;81.70
47338;DHT22;33069;51.970;5.892;2022-11-18T11:26:08;10.40;81.20
47338;DHT22;33069;51.970;5.892;2022-11-18T11:28:51;10.50;81.30
47338;DHT22;33069;51.970;5.892;2022-11-18T11:42:33;11.00;80.30
47338;DHT22;33069;51.970;5.892;2022-11-18T11:45:08;11.10;79.40
47338;DHT22;33069;51.970;5.892;2022-11-18T12:01:24;10.90;78.70
47338;DHT22;33069;51.970;5.892;2022-11-18T12:06:51;11.00;79.40
47338;DHT22;33069;51.970;5.892;2022-11-18T12:14:48;11.30;79.20
47338;DHT22;33069;51.970;5.892;2022-11-18T12:17:23;11.20;78.70
47338;DHT22;33069;51.970;5.892;2022-11-18T12:19:52;11.00;78.80
47338;DHT22;33069;51.970;5.892;2022-11-18T12:22:17;11.10;79.20
47338;DHT22;33069;51.970;5.892;2022-11-18T12:24:43;11.10;79.50
47338;DHT22;33069;51.970;5.892;2022-11-18T12:29:54;11.00;80.00
47338;DHT22;33069;51.970;5.892;2022-11-18T12:32:56;11.00;80.30
47338;DHT22;33069;51.970;5.892;2022-11-18T12:35:26;11.30;80.20
47338;DHT22;33069;51.970;5.892;2022-11-18T12:42:59;11.50;78.60
47338;DHT22;33069;51.970;5.892;2022-11-18T12:50:51;11.60;77.50
47338;DHT22;33069;51.970;5.892;2022-11-18T12:53:42;11.60;77.80
47338;DHT22;33069;51.970;5.892;2022-11-18T12:56:25;11.60;78.30
47338;DHT22;33069;51.970;5.892;2022-11-18T12:58:53;11.50;77.80
47338;DHT22;33069;51.970;5.892;2022-11-18T13:01:25;11.30;77.80
47338;DHT22;33069;51.970;5.892;2022-11-18T13:03:52;11.30;78.60
47338;DHT22;33069;51.970;5.892;2022-11-18T13:09:23;11.30;78.80
47338;DHT22;33069;51.970;5.892;2022-11-18T13:11:54;11.40;79.20
47338;DHT22;33069;51.970;5.892;2022-11-18T13:14:27;11.40;79.10
47338;DHT22;33069;51.970;5.892;2022-11-18T13:23:25;11.50;78.10
47338;DHT22;33069;51.970;5.892;2022-11-18T13:26:19;11.20;78.60
47338;DHT22;33069;51.970;5.892;2022-11-18T13:32:20;11.50;78.10
47338;DHT22;33069;51.970;5.892;2022-11-18T13:34:49;11.60;77.10
47338;DHT22;33069;51.970;5.892;2022-11-18T13:37:27;11.60;76.30
47338;DHT22;33069;51.970;5.892;2022-11-18T13:39:53;11.30;77.70
47338;DHT22;33069;51.970;5.892;2022-11-18T13:42:27;11.50;77.50
47338;DHT22;33069;51.970;5.892;2022-11-18T13:44:58;11.70;77.10
47338;DHT22;33069;51.970;5.892;2022-11-18T13:55:13;11.60;76.50
47338;DHT22;33069;51.970;5.892;2022-11-18T13:57:40;11.60;77.30
47338;DHT22;33069;51.970;5.892;2022-11-18T14:00:18;11.60;77.60
47338;DHT22;33069;51.970;5.892;2022-11-18T14:02:50;11.60;77.70
47338;DHT22;33069;51.970;5.892;2022-11-18T14:05:19;11.70;77.70
47338;DHT22;33069;51.970;5.892;2022-11-18T14:08:04;11.70;77.30
47338;DHT22;33069;51.970;5.892;2022-11-18T14:10:43;11.50;76.40
47338;DHT22;33069;51.970;5.892;2022-11-18T14:13:46;11.40;77.20
47338;DHT22;33069;51.970;5.892;2022-11-18T14:18:50;11.90;74.30
47338;DHT22;33069;51.970;5.892;2022-11-18T14:21:30;11.50;75.70
47338;DHT22;33069;51.970;5.892;2022-11-18T14:23:57;11.30;77.10
47338;DHT22;33069;51.970;5.892;2022-11-18T14:29:01;11.30;76.80
47338;DHT22;33069;51.970;5.892;2022-11-18T14:31:29;11.50;77.20
47338;DHT22;33069;51.970;5.892;2022-11-18T14:34:22;11.40;76.70
47338;DHT22;33069;51.970;5.892;2022-11-18T14:36:49;11.50;77.00
47338;DHT22;33069;51.970;5.892;2022-11-18T14:39:27;11.50;77.00
47338;DHT22;33069;51.970;5.892;2022-11-18T14:41:53;11.60;77.80
47338;DHT22;33069;51.970;5.892;2022-11-18T14:44:21;11.50;77.30
47338;DHT22;33069;51.970;5.892;2022-11-18T14:46:54;11.50;77.20
47338;DHT22;33069;51.970;5.892;2022-11-18T14:49:24;11.50;77.10
47338;DHT22;33069;51.970;5.892;2022-11-18T14:51:52;11.50;77.30
47338;DHT22;33069;51.970;5.892;2022-11-18T14:54:21;11.50;77.80
47338;DHT22;33069;51.970;5.892;2022-11-18T14:56:49;11.50;77.90
47338;DHT22;33069;51.970;5.892;2022-11-18T14:59:17;11.30;77.70
47338;DHT22;33069;51.970;5.892;2022-11-18T15:01:43;11.30;77.40
47338;DHT22;33069;51.970;5.892;2022-11-18T15:04:10;11.00;77.70
47338;DHT22;33069;51.970;5.892;2022-11-18T15:06:36;11.00;77.90
47338;DHT22;33069;51.970;5.892;2022-11-18T15:09:04;11.00;78.00
47338;DHT22;33069;51.970;5.892;2022-11-18T15:11:30;10.90;77.80
47338;DHT22;33069;51.970;5.892;2022-11-18T15:13:55;11.00;77.90
47338;DHT22;33069;51.970;5.892;2022-11-18T15:16:29;10.90;78.10
47338;DHT22;33069;51.970;5.892;2022-11-18T15:18:58;10.90;78.20
47338;DHT22;33069;51.970;5.892;2022-11-18T15:21:25;11.00;78.20
47338;DHT22;33069;51.970;5.892;2022-11-18T15:23:51;11.00;78.30
47338;DHT22;33069;51.970;5.892;2022-11-18T15:26:26;11.00;78.20
47338;DHT22;33069;51.970;5.892;2022-11-18T15:28:54;11.00;78.20
47338;DHT22;33069;51.970;5.892;2022-11-18T15:31:22;11.00;78.20
47338;DHT22;33069;51.970;5.892;2022-11-18T15:33:49;11.00;78.10
47338;DHT22;33069;51.970;5.892;2022-11-18T15:36:20;11.00;78.30
47338;DHT22;33069;51.970;5.892;2022-11-18T15:38:47;11.00;78.20
47338;DHT22;33069;51.970;5.892;2022-11-18T15:41:20;10.70;78.20
47338;DHT22;33069;51.970;5.892;2022-11-18T15:43:47;10.80;78.90
47338;DHT22;33069;51.970;5.892;2022-11-18T15:46:14;10.60;79.00
47338;DHT22;33069;51.970;5.892;2022-11-18T15:48:40;10.30;79.60
47338;DHT22;33069;51.970;5.892;2022-11-18T15:51:07;10.40;80.60
47338;DHT22;33069;51.970;5.892;2022-11-18T15:53:33;10.30;80.30
47338;DHT22;33069;51.970;5.892;2022-11-18T15:58:43;10.20;80.60
47338;DHT22;33069;51.970;5.892;2022-11-18T16:01:09;10.10;80.80
47338;DHT22;33069;51.970;5.892;2022-11-18T16:03:34;10.10;80.90
47338;DHT22;33069;51.970;5.892;2022-11-18T16:06:00;10.00;81.00
47338;DHT22;33069;51.970;5.892;2022-11-18T16:08:26;9.90;81.10
47338;DHT22;33069;51.970;5.892;2022-11-18T16:10:55;9.90;81.50
47338;DHT22;33069;51.970;5.892;2022-11-18T16:13:39;9.80;81.50
47338;DHT22;33069;51.970;5.892;2022-11-18T16:16:05;9.80;81.70
47338;DHT22;33069;51.970;5.892;2022-11-18T16:18:31;9.70;81.70
47338;DHT22;33069;51.970;5.892;2022-11-18T16:20:58;9.60;81.90
47338;DHT22;33069;51.970;5.892;2022-11-18T16:23:25;9.40;82.00
47338;DHT22;33069;51.970;5.892;2022-11-18T16:25:52;9.50;82.30
47338;DHT22;33069;51.970;5.892;2022-11-18T16:28:18;9.30;82.40
47338;DHT22;33069;51.970;5.892;2022-11-18T16:30:48;9.20;82.50
47338;DHT22;33069;51.970;5.892;2022-11-18T16:33:32;9.00;82.80
47338;DHT22;33069;51.970;5.892;2022-11-18T16:35:58;8.80;83.70
47338;DHT22;33069;51.970;5.892;2022-11-18T16:38:24;8.80;84.30
47338;DHT22;33069;51.970;5.892;2022-11-18T16:40:59;8.80;84.50
47338;DHT22;33069;51.970;5.892;2022-11-18T16:43:25;8.90;84.80
47338;DHT22;33069;51.970;5.892;2022-11-18T16:45:52;8.80;84.80
47338;DHT22;33069;51.970;5.892;2022-11-18T16:48:21;8.80;85.00
47338;DHT22;33069;51.970;5.892;2022-11-18T16:51:17;8.80;85.20
47338;DHT22;33069;51.970;5.892;2022-11-18T16:53:51;8.80;85.00
47338;DHT22;33069;51.970;5.892;2022-11-18T16:56:18;8.70;85.00
47338;DHT22;33069;51.970;5.892;2022-11-18T16:58:44;8.70;85.30
47338;DHT22;33069;51.970;5.892;2022-11-18T17:01:11;8.60;85.40
47338;DHT22;33069;51.970;5.892;2022-11-18T17:03:36;8.60;85.70
47338;DHT22;33069;51.970;5.892;2022-11-18T17:06:02;8.60;85.90
47338;DHT22;33069;51.970;5.892;2022-11-18T17:08:32;8.70;86.00
47338;DHT22;33069;51.970;5.892;2022-11-18T17:11:06;8.60;86.00
47338;DHT22;33069;51.970;5.892;2022-11-18T17:13:33;8.70;86.20
47338;DHT22;33069;51.970;5.892;2022-11-18T17:16:12;8.70;86.20
47338;DHT22;33069;51.970;5.892;2022-11-18T17:18:38;8.70;86.30
47338;DHT22;33069;51.970;5.892;2022-11-18T17:21:07;8.90;86.50
47338;DHT22;33069;51.970;5.892;2022-11-18T17:23:34;9.00;86.50
47338;DHT22;33069;51.970;5.892;2022-11-18T17:26:00;9.20;86.40
47338;DHT22;33069;51.970;5.892;2022-11-18T17:28:28;9.20;86.20
47338;DHT22;33069;51.970;5.892;2022-11-18T17:30:54;9.20;86.10
47338;DHT22;33069;51.970;5.892;2022-11-18T17:33:20;9.20;86.10
47338;DHT22;33069;51.970;5.892;2022-11-18T17:35:59;9.30;86.20
47338;DHT22;33069;51.970;5.892;2022-11-18T17:38:27;9.60;86.00
47338;DHT22;33069;51.970;5.892;2022-11-18T17:40:57;9.60;85.30
47338;DHT22;33069;51.970;5.892;2022-11-18T17:43:24;9.70;85.00
47338;DHT22;33069;51.970;5.892;2022-11-18T17:45:51;9.40;84.90
47338;DHT22;33069;51.970;5.892;2022-11-18T17:48:19;9.30;85.50
47338;DHT22;33069;51.970;5.892;2022-11-18T17:50:45;9.20;86.20
47338;DHT22;33069;51.970;5.892;2022-11-18T17:53:12;9.20;86.30
47338;DHT22;33069;51.970;5.892;2022-11-18T17:55:38;9.30;86.40